sensor_id;sensor_type;location;lat;lon;timestamp;temperature;humidity
22645;DHT22;11489;50.834;6.752;2022-12-17T00:00:04;-0.10;92.80
22645;DHT22;11489;50.834;6.752;2022-12-17T00:02:49;-0.10;92.70
22645;DHT22;11489;50.834;6.752;2022-12-17T00:05:33;-0.10;92.70
22645;DHT22;11489;50.834;6.752;2022-12-17T00:08:17;-0.10;92.70
22645;DHT22;11489;50.834;6.752;2022-12-17T00:11:02;-0.10;92.70
22645;DHT22;11489;50.834;6.752;2022-12-17T00:13:46;-0.20;92.70
22645;DHT22;11489;50.834;6.752;2022-12-17T00:16:30;-0.20;92.70
22645;DHT22;11489;50.834;6.752;2022-12-17T00:19:15;-0.20;92.70
22645;DHT22;11489;50.834;6.752;2022-12-17T00:21:59;-0.20;92.70
22645;DHT22;11489;50.834;6.752;2022-12-17T00:24:44;-0.20;92.70
22645;DHT22;11489;50.834;6.752;2022-12-17T00:27:28;-0.30;92.70
22645;DHT22;11489;50.834;6.752;2022-12-17T00:30:13;-0.20;92.80
22645;DHT22;11489;50.834;6.752;2022-12-17T00:32:57;-0.20;92.80
22645;DHT22;11489;50.834;6.752;2022-12-17T00:35:42;-0.30;92.80
22645;DHT22;11489;50.834;6.752;2022-12-17T00:38:26;-0.20;92.80
22645;DHT22;11489;50.834;6.752;2022-12-17T00:41:11;-0.20;92.80
22645;DHT22;11489;50.834;6.752;2022-12-17T00:43:55;-0.30;92.80
22645;DHT22;11489;50.834;6.752;2022-12-17T00:46:40;-0.20;92.80
22645;DHT22;11489;50.834;6.752;2022-12-17T00:49:24;-0.30;92.80
22645;DHT22;11489;50.834;6.752;2022-12-17T00:52:09;-0.20;92.90
22645;DHT22;11489;50.834;6.752;2022-12-17T00:54:53;-0.20;92.80
22645;DHT22;11489;50.834;6.752;2022-12-17T00:57:38;-0.20;92.90
22645;DHT22;11489;50.834;6.752;2022-12-17T01:00:22;-0.20;92.80
22645;DHT22;11489;50.834;6.752;2022-12-17T01:03:09;-0.20;92.80
22645;DHT22;11489;50.834;6.752;2022-12-17T01:05:54;-0.20;92.80
22645;DHT22;11489;50.834;6.752;2022-12-17T01:08:38;-0.20;92.80
22645;DHT22;11489;50.834;6.752;2022-12-17T01:11:23;-0.20;92.80
22645;DHT22;11489;50.834;6.752;2022-12-17T01:14:07;-0.20;92.80
22645;DHT22;11489;50.834;6.752;2022-12-17T01:16:52;-0.20;92.80
22645;DHT22;11489;50.834;6.752;2022-12-17T01:19:36;-0.10;92.90
22645;DHT22;11489;50.834;6.752;2022-12-17T01:22:20;-0.10;92.90
22645;DHT22;11489;50.834;6.752;2022-12-17T01:25:05;-0.10;92.90
22645;DHT22;11489;50.834;6.752;2022-12-17T01:27:50;-0.10;92.80
22645;DHT22;11489;50.834;6.752;2022-12-17T01:30:37;-0.10;92.80
22645;DHT22;11489;50.834;6.752;2022-12-17T01:33:21;-0.10;92.80
22645;DHT22;11489;50.834;6.752;2022-12-17T01:36:05;-0.10;92.80
22645;DHT22;11489;50.834;6.752;2022-12-17T01:38:50;-0.10;92.70
22645;DHT22;11489;50.834;6.752;2022-12-17T01:41:35;-0.10;92.70
22645;DHT22;11489;50.834;6.752;2022-12-17T01:47:51;-0.10;92.60
22645;DHT22;11489;50.834;6.752;2022-12-17T01:50:47;-0.10;92.60
22645;DHT22;11489;50.834;6.752;2022-12-17T01:53:40;-0.10;92.70
22645;DHT22;11489;50.834;6.752;2022-12-17T01:56:26;-0.10;92.70
22645;DHT22;11489;50.834;6.752;2022-12-17T01:59:12;-0.10;92.60
22645;DHT22;11489;50.834;6.752;2022-12-17T02:01:57;-0.10;92.60
22645;DHT22;11489;50.834;6.752;2022-12-17T02:04:42;-0.10;92.60
22645;DHT22;11489;50.834;6.752;2022-12-17T02:10:55;-0.10;92.50
22645;DHT22;11489;50.834;6.752;2022-12-17T02:13:47;-0.10;92.50
22645;DHT22;11489;50.834;6.752;2022-12-17T02:16:57;-0.10;92.60
22645;DHT22;11489;50.834;6.752;2022-12-17T02:28:32;-0.10;92.70
22645;DHT22;11489;50.834;6.752;2022-12-17T02:31:18;-0.20;92.40
22645;DHT22;11489;50.834;6.752;2022-12-17T02:34:03;-0.20;92.40
22645;DHT22;11489;50.834;6.752;2022-12-17T02:36:47;-0.20;92.40
22645;DHT22;11489;50.834;6.752;2022-12-17T02:39:31;-0.20;92.40
22645;DHT22;11489;50.834;6.752;2022-12-17T02:42:16;-0.20;92.40
22645;DHT22;11489;50.834;6.752;2022-12-17T02:45:01;-0.20;92.40
22645;DHT22;11489;50.834;6.752;2022-12-17T02:47:45;-0.20;92.40
22645;DHT22;11489;50.834;6.752;2022-12-17T02:50:30;-0.20;92.40
22645;DHT22;11489;50.834;6.752;2022-12-17T02:53:14;-0.20;92.40
22645;DHT22;11489;50.834;6.752;2022-12-17T02:55:58;-0.20;92.30
22645;DHT22;11489;50.834;6.752;2022-12-17T02:58:43;-0.20;92.30
22645;DHT22;11489;50.834;6.752;2022-12-17T03:01:27;-0.20;92.30
22645;DHT22;11489;50.834;6.752;2022-12-17T03:04:11;-0.20;92.30
22645;DHT22;11489;50.834;6.752;2022-12-17T03:06:56;-0.20;92.30
22645;DHT22;11489;50.834;6.752;2022-12-17T03:09:40;-0.20;92.30
22645;DHT22;11489;50.834;6.752;2022-12-17T03:12:25;-0.30;92.30
22645;DHT22;11489;50.834;6.752;2022-12-17T03:15:09;-0.30;92.30
22645;DHT22;11489;50.834;6.752;2022-12-17T03:17:54;-0.30;92.30
22645;DHT22;11489;50.834;6.752;2022-12-17T03:20:38;-0.30;92.30
22645;DHT22;11489;50.834;6.752;2022-12-17T03:23:22;-0.30;92.30
22645;DHT22;11489;50.834;6.752;2022-12-17T03:26:07;-0.30;92.30
22645;DHT22;11489;50.834;6.752;2022-12-17T03:28:51;-0.30;92.30
22645;DHT22;11489;50.834;6.752;2022-12-17T03:31:36;-0.30;92.30
22645;DHT22;11489;50.834;6.752;2022-12-17T03:34:20;-0.30;92.20
22645;DHT22;11489;50.834;6.752;2022-12-17T03:37:05;-0.30;92.20
22645;DHT22;11489;50.834;6.752;2022-12-17T03:39:49;-0.40;92.10
22645;DHT22;11489;50.834;6.752;2022-12-17T03:42:34;-0.40;92.10
22645;DHT22;11489;50.834;6.752;2022-12-17T03:45:38;-0.40;92.20
22645;DHT22;11489;50.834;6.752;2022-12-17T03:48:22;-0.40;92.20
22645;DHT22;11489;50.834;6.752;2022-12-17T03:51:06;-0.40;92.20
22645;DHT22;11489;50.834;6.752;2022-12-17T03:53:50;-0.40;92.20
22645;DHT22;11489;50.834;6.752;2022-12-17T03:56:35;-0.50;92.20
22645;DHT22;11489;50.834;6.752;2022-12-17T03:59:19;-0.50;92.20
22645;DHT22;11489;50.834;6.752;2022-12-17T04:02:04;-0.50;92.20
22645;DHT22;11489;50.834;6.752;2022-12-17T04:04:48;-0.50;92.20
22645;DHT22;11489;50.834;6.752;2022-12-17T04:07:33;-0.50;92.20
22645;DHT22;11489;50.834;6.752;2022-12-17T04:10:17;-0.50;92.20
22645;DHT22;11489;50.834;6.752;2022-12-17T04:13:02;-0.60;92.20
22645;DHT22;11489;50.834;6.752;2022-12-17T04:15:46;-0.60;92.10
22645;DHT22;11489;50.834;6.752;2022-12-17T04:18:30;-0.60;92.10
22645;DHT22;11489;50.834;6.752;2022-12-17T04:21:15;-0.60;92.00
22645;DHT22;11489;50.834;6.752;2022-12-17T04:23:59;-0.70;92.00
22645;DHT22;11489;50.834;6.752;2022-12-17T04:26:44;-0.70;92.00
22645;DHT22;11489;50.834;6.752;2022-12-17T04:29:28;-0.70;92.00
22645;DHT22;11489;50.834;6.752;2022-12-17T04:32:13;-0.70;92.00
22645;DHT22;11489;50.834;6.752;2022-12-17T04:34:57;-0.80;92.10
22645;DHT22;11489;50.834;6.752;2022-12-17T04:37:41;-0.80;92.10
22645;DHT22;11489;50.834;6.752;2022-12-17T04:40:26;-0.80;92.10
22645;DHT22;11489;50.834;6.752;2022-12-17T04:43:12;-0.80;92.10
22645;DHT22;11489;50.834;6.752;2022-12-17T04:45:57;-0.80;92.20
22645;DHT22;11489;50.834;6.752;2022-12-17T04:48:41;-0.80;92.20
22645;DHT22;11489;50.834;6.752;2022-12-17T04:51:26;-0.80;92.10
22645;DHT22;11489;50.834;6.752;2022-12-17T04:54:10;-0.80;92.20
22645;DHT22;11489;50.834;6.752;2022-12-17T04:56:55;-0.80;92.20
22645;DHT22;11489;50.834;6.752;2022-12-17T04:59:39;-0.90;92.10
22645;DHT22;11489;50.834;6.752;2022-12-17T05:02:24;-0.90;92.10
22645;DHT22;11489;50.834;6.752;2022-12-17T05:05:08;-0.90;92.20
22645;DHT22;11489;50.834;6.752;2022-12-17T05:07:56;-0.90;92.20
22645;DHT22;11489;50.834;6.752;2022-12-17T05:10:41;-0.90;92.20
22645;DHT22;11489;50.834;6.752;2022-12-17T05:13:26;-0.90;92.20
22645;DHT22;11489;50.834;6.752;2022-12-17T05:16:12;-0.90;92.20
22645;DHT22;11489;50.834;6.752;2022-12-17T05:18:56;-1.00;92.10
22645;DHT22;11489;50.834;6.752;2022-12-17T05:21:40;-1.00;92.10
22645;DHT22;11489;50.834;6.752;2022-12-17T05:24:25;-1.00;92.10
22645;DHT22;11489;50.834;6.752;2022-12-17T05:27:09;-1.00;92.20
22645;DHT22;11489;50.834;6.752;2022-12-17T05:29:53;-1.00;92.20
22645;DHT22;11489;50.834;6.752;2022-12-17T05:32:38;-1.10;92.20
22645;DHT22;11489;50.834;6.752;2022-12-17T05:35:22;-1.10;92.20
22645;DHT22;11489;50.834;6.752;2022-12-17T05:38:08;-1.10;92.20
22645;DHT22;11489;50.834;6.752;2022-12-17T05:40:57;-1.10;92.10
22645;DHT22;11489;50.834;6.752;2022-12-17T05:43:42;-1.10;92.10
22645;DHT22;11489;50.834;6.752;2022-12-17T05:46:27;-1.20;92.10
22645;DHT22;11489;50.834;6.752;2022-12-17T05:49:12;-1.20;92.10
22645;DHT22;11489;50.834;6.752;2022-12-17T05:51:56;-1.20;92.10
22645;DHT22;11489;50.834;6.752;2022-12-17T05:54:40;-1.30;92.10
22645;DHT22;11489;50.834;6.752;2022-12-17T05:57:25;-1.30;92.10
22645;DHT22;11489;50.834;6.752;2022-12-17T06:00:10;-1.30;92.20
22645;DHT22;11489;50.834;6.752;2022-12-17T06:02:59;-1.30;92.20
22645;DHT22;11489;50.834;6.752;2022-12-17T06:05:43;-1.30;92.20
22645;DHT22;11489;50.834;6.752;2022-12-17T06:08:28;-1.30;92.20
22645;DHT22;11489;50.834;6.752;2022-12-17T06:11:12;-1.30;92.20
22645;DHT22;11489;50.834;6.752;2022-12-17T06:13:57;-1.30;92.20
22645;DHT22;11489;50.834;6.752;2022-12-17T06:16:41;-1.40;92.10
22645;DHT22;11489;50.834;6.752;2022-12-17T06:19:25;-1.40;92.10
22645;DHT22;11489;50.834;6.752;2022-12-17T06:22:10;-1.40;92.40
22645;DHT22;11489;50.834;6.752;2022-12-17T06:24:55;-1.40;92.10
22645;DHT22;11489;50.834;6.752;2022-12-17T06:27:39;-1.50;92.10
22645;DHT22;11489;50.834;6.752;2022-12-17T06:30:24;-1.50;92.10
22645;DHT22;11489;50.834;6.752;2022-12-17T06:33:10;-1.50;92.00
22645;DHT22;11489;50.834;6.752;2022-12-17T06:35:56;-1.60;92.00
22645;DHT22;11489;50.834;6.752;2022-12-17T06:38:41;-1.60;92.00
22645;DHT22;11489;50.834;6.752;2022-12-17T06:41:25;-1.60;92.10
22645;DHT22;11489;50.834;6.752;2022-12-17T06:44:10;-1.60;92.00
22645;DHT22;11489;50.834;6.752;2022-12-17T06:46:54;-1.70;92.00
22645;DHT22;11489;50.834;6.752;2022-12-17T06:49:39;-1.70;92.00
22645;DHT22;11489;50.834;6.752;2022-12-17T06:52:23;-1.70;92.00
22645;DHT22;11489;50.834;6.752;2022-12-17T06:55:08;-1.80;91.90
22645;DHT22;11489;50.834;6.752;2022-12-17T06:57:59;-1.80;92.00
22645;DHT22;11489;50.834;6.752;2022-12-17T07:00:44;-1.90;91.90
22645;DHT22;11489;50.834;6.752;2022-12-17T07:03:28;-1.90;91.90
22645;DHT22;11489;50.834;6.752;2022-12-17T07:06:23;-1.90;92.00
22645;DHT22;11489;50.834;6.752;2022-12-17T07:09:08;-2.00;92.00
22645;DHT22;11489;50.834;6.752;2022-12-17T07:11:52;-2.00;92.00
22645;DHT22;11489;50.834;6.752;2022-12-17T07:14:36;-2.00;92.00
22645;DHT22;11489;50.834;6.752;2022-12-17T07:17:20;-2.00;92.00
22645;DHT22;11489;50.834;6.752;2022-12-17T07:20:05;-2.10;92.00
22645;DHT22;11489;50.834;6.752;2022-12-17T07:22:56;-2.10;92.00
22645;DHT22;11489;50.834;6.752;2022-12-17T07:25:41;-2.10;92.00
22645;DHT22;11489;50.834;6.752;2022-12-17T07:28:25;-2.10;92.10
22645;DHT22;11489;50.834;6.752;2022-12-17T07:31:09;-2.20;92.10
22645;DHT22;11489;50.834;6.752;2022-12-17T07:33:54;-2.20;92.20
22645;DHT22;11489;50.834;6.752;2022-12-17T07:36:38;-2.20;92.20
22645;DHT22;11489;50.834;6.752;2022-12-17T07:39:23;-2.20;92.20
22645;DHT22;11489;50.834;6.752;2022-12-17T07:42:07;-2.20;92.20
22645;DHT22;11489;50.834;6.752;2022-12-17T07:44:53;-2.20;92.20
22645;DHT22;11489;50.834;6.752;2022-12-17T07:47:38;-2.20;92.20
22645;DHT22;11489;50.834;6.752;2022-12-17T07:50:22;-2.20;92.20
22645;DHT22;11489;50.834;6.752;2022-12-17T07:53:07;-2.20;92.20
22645;DHT22;11489;50.834;6.752;2022-12-17T07:55:51;-2.20;92.20
22645;DHT22;11489;50.834;6.752;2022-12-17T07:58:35;-2.30;92.10
22645;DHT22;11489;50.834;6.752;2022-12-17T08:01:20;-2.30;92.10
22645;DHT22;11489;50.834;6.752;2022-12-17T08:04:04;-2.30;92.10
22645;DHT22;11489;50.834;6.752;2022-12-17T08:06:50;-2.30;92.10
22645;DHT22;11489;50.834;6.752;2022-12-17T08:09:35;-2.30;92.20
22645;DHT22;11489;50.834;6.752;2022-12-17T08:12:19;-2.30;92.20
22645;DHT22;11489;50.834;6.752;2022-12-17T08:15:04;-2.30;92.30
22645;DHT22;11489;50.834;6.752;2022-12-17T08:17:49;-2.30;92.30
22645;DHT22;11489;50.834;6.752;2022-12-17T08:20:33;-2.30;92.30
22645;DHT22;11489;50.834;6.752;2022-12-17T08:23:17;-2.30;92.30
22645;DHT22;11489;50.834;6.752;2022-12-17T08:26:02;-2.30;92.30
22645;DHT22;11489;50.834;6.752;2022-12-17T08:28:46;-2.30;92.30
22645;DHT22;11489;50.834;6.752;2022-12-17T08:31:32;-2.30;92.30
22645;DHT22;11489;50.834;6.752;2022-12-17T08:34:16;-2.30;92.30
22645;DHT22;11489;50.834;6.752;2022-12-17T08:37:17;-2.40;92.30
22645;DHT22;11489;50.834;6.752;2022-12-17T08:40:02;-2.40;92.20
22645;DHT22;11489;50.834;6.752;2022-12-17T08:42:46;-2.40;92.30
22645;DHT22;11489;50.834;6.752;2022-12-17T08:45:31;-2.40;92.20
22645;DHT22;11489;50.834;6.752;2022-12-17T08:48:15;-2.40;92.30
22645;DHT22;11489;50.834;6.752;2022-12-17T08:50:59;-2.40;92.30
22645;DHT22;11489;50.834;6.752;2022-12-17T08:53:44;-2.40;92.30
22645;DHT22;11489;50.834;6.752;2022-12-17T08:56:28;-2.40;92.30
22645;DHT22;11489;50.834;6.752;2022-12-17T08:59:13;-2.30;92.40
22645;DHT22;11489;50.834;6.752;2022-12-17T09:01:57;-2.30;92.50
22645;DHT22;11489;50.834;6.752;2022-12-17T09:04:42;-2.40;92.40
22645;DHT22;11489;50.834;6.752;2022-12-17T09:07:26;-2.30;92.40
22645;DHT22;11489;50.834;6.752;2022-12-17T09:10:11;-2.30;92.30
22645;DHT22;11489;50.834;6.752;2022-12-17T09:12:55;-2.40;92.20
22645;DHT22;11489;50.834;6.752;2022-12-17T09:15:50;-2.30;92.30
22645;DHT22;11489;50.834;6.752;2022-12-17T09:18:34;-2.40;92.30
22645;DHT22;11489;50.834;6.752;2022-12-17T09:21:19;-2.40;92.30
22645;DHT22;11489;50.834;6.752;2022-12-17T09:24:04;-2.40;92.30
22645;DHT22;11489;50.834;6.752;2022-12-17T09:26:49;-2.40;92.20
22645;DHT22;11489;50.834;6.752;2022-12-17T09:29:33;-2.40;92.20
22645;DHT22;11489;50.834;6.752;2022-12-17T09:32:18;-2.40;92.30
22645;DHT22;11489;50.834;6.752;2022-12-17T09:35:02;-2.40;92.30
22645;DHT22;11489;50.834;6.752;2022-12-17T09:37:53;-2.40;92.40
22645;DHT22;11489;50.834;6.752;2022-12-17T09:40:38;-2.40;92.40
22645;DHT22;11489;50.834;6.752;2022-12-17T09:43:31;-2.40;92.40
22645;DHT22;11489;50.834;6.752;2022-12-17T09:46:43;-2.30;92.50
22645;DHT22;11489;50.834;6.752;2022-12-17T09:49:29;-2.30;92.30
22645;DHT22;11489;50.834;6.752;2022-12-17T09:52:33;-2.30;92.40
22645;DHT22;11489;50.834;6.752;2022-12-17T09:55:22;-2.30;92.30
22645;DHT22;11489;50.834;6.752;2022-12-17T09:58:23;-2.30;92.30
22645;DHT22;11489;50.834;6.752;2022-12-17T10:01:16;-2.30;92.30
22645;DHT22;11489;50.834;6.752;2022-12-17T10:04:03;-2.30;92.40
22645;DHT22;11489;50.834;6.752;2022-12-17T10:06:47;-2.20;92.50
22645;DHT22;11489;50.834;6.752;2022-12-17T10:09:33;-2.20;92.50
22645;DHT22;11489;50.834;6.752;2022-12-17T10:12:19;-2.20;92.50
22645;DHT22;11489;50.834;6.752;2022-12-17T10:15:05;-2.20;92.50
22645;DHT22;11489;50.834;6.752;2022-12-17T10:17:50;-2.10;92.60
22645;DHT22;11489;50.834;6.752;2022-12-17T10:20:45;-2.10;92.50
22645;DHT22;11489;50.834;6.752;2022-12-17T10:23:32;-2.10;92.40
22645;DHT22;11489;50.834;6.752;2022-12-17T10:26:18;-2.10;92.40
22645;DHT22;11489;50.834;6.752;2022-12-17T10:32:18;-2.00;92.40
22645;DHT22;11489;50.834;6.752;2022-12-17T10:37:52;-2.00;92.60
22645;DHT22;11489;50.834;6.752;2022-12-17T10:40:36;-1.90;92.70
22645;DHT22;11489;50.834;6.752;2022-12-17T10:43:26;-1.90;92.70
22645;DHT22;11489;50.834;6.752;2022-12-17T10:46:11;-1.90;92.50
22645;DHT22;11489;50.834;6.752;2022-12-17T10:49:04;-1.80;92.40
22645;DHT22;11489;50.834;6.752;2022-12-17T10:51:49;-1.90;92.30
22645;DHT22;11489;50.834;6.752;2022-12-17T10:54:33;-1.90;92.30
22645;DHT22;11489;50.834;6.752;2022-12-17T10:57:32;-1.90;92.40
22645;DHT22;11489;50.834;6.752;2022-12-17T11:03:02;-1.90;92.30
22645;DHT22;11489;50.834;6.752;2022-12-17T11:05:50;-1.90;92.20
22645;DHT22;11489;50.834;6.752;2022-12-17T11:08:36;-1.90;92.10
22645;DHT22;11489;50.834;6.752;2022-12-17T11:11:21;-1.90;92.00
22645;DHT22;11489;50.834;6.752;2022-12-17T11:14:10;-2.00;92.20
22645;DHT22;11489;50.834;6.752;2022-12-17T11:16:59;-2.00;92.40
22645;DHT22;11489;50.834;6.752;2022-12-17T11:19:56;-1.90;92.50
22645;DHT22;11489;50.834;6.752;2022-12-17T11:22:48;-1.90;92.80
22645;DHT22;11489;50.834;6.752;2022-12-17T11:25:59;-1.80;93.40
22645;DHT22;11489;50.834;6.752;2022-12-17T11:28:46;-1.70;93.40
22645;DHT22;11489;50.834;6.752;2022-12-17T11:32:03;-1.60;93.40
22645;DHT22;11489;50.834;6.752;2022-12-17T11:38:44;-1.30;93.70
22645;DHT22;11489;50.834;6.752;2022-12-17T11:41:39;-1.20;93.70
22645;DHT22;11489;50.834;6.752;2022-12-17T11:48:32;-0.70;94.00
22645;DHT22;11489;50.834;6.752;2022-12-17T11:51:17;-0.50;93.90
22645;DHT22;11489;50.834;6.752;2022-12-17T11:54:13;-0.40;93.70
22645;DHT22;11489;50.834;6.752;2022-12-17T11:57:23;-0.20;93.70
22645;DHT22;11489;50.834;6.752;2022-12-17T12:00:18;-0.10;93.40
22645;DHT22;11489;50.834;6.752;2022-12-17T12:06:22;0.20;93.70
22645;DHT22;11489;50.834;6.752;2022-12-17T12:18:20;0.80;93.40
22645;DHT22;11489;50.834;6.752;2022-12-17T12:24:44;1.00;92.70
22645;DHT22;11489;50.834;6.752;2022-12-17T12:27:40;1.10;92.30
22645;DHT22;11489;50.834;6.752;2022-12-17T12:31:13;1.20;92.70
22645;DHT22;11489;50.834;6.752;2022-12-17T12:34:20;1.20;92.20
22645;DHT22;11489;50.834;6.752;2022-12-17T12:37:06;1.30;92.30
22645;DHT22;11489;50.834;6.752;2022-12-17T12:40:00;1.30;92.30
22645;DHT22;11489;50.834;6.752;2022-12-17T12:42:51;1.30;92.10
22645;DHT22;11489;50.834;6.752;2022-12-17T12:45:54;1.30;91.80
22645;DHT22;11489;50.834;6.752;2022-12-17T12:48:43;1.30;91.60
22645;DHT22;11489;50.834;6.752;2022-12-17T12:51:30;1.20;91.70
22645;DHT22;11489;50.834;6.752;2022-12-17T12:54:28;1.20;91.80
22645;DHT22;11489;50.834;6.752;2022-12-17T12:57:32;1.10;91.70
22645;DHT22;11489;50.834;6.752;2022-12-17T13:00:33;1.10;91.80
22645;DHT22;11489;50.834;6.752;2022-12-17T13:03:25;1.20;92.00
22645;DHT22;11489;50.834;6.752;2022-12-17T13:06:11;1.20;91.90
22645;DHT22;11489;50.834;6.752;2022-12-17T13:08:37;1.20;91.80
22645;DHT22;11489;50.834;6.752;2022-12-17T13:11:25;1.20;91.70
22645;DHT22;11489;50.834;6.752;2022-12-17T13:13:52;1.20;91.60
22645;DHT22;11489;50.834;6.752;2022-12-17T13:16:30;1.30;91.90
22645;DHT22;11489;50.834;6.752;2022-12-17T13:19:30;1.30;91.80
22645;DHT22;11489;50.834;6.752;2022-12-17T13:21:50;1.30;91.80
22645;DHT22;11489;50.834;6.752;2022-12-17T13:24:26;1.30;91.70
22645;DHT22;11489;50.834;6.752;2022-12-17T13:26:52;1.30;91.50
22645;DHT22;11489;50.834;6.752;2022-12-17T13:29:30;1.30;91.60
22645;DHT22;11489;50.834;6.752;2022-12-17T13:34:56;1.30;91.30
22645;DHT22;11489;50.834;6.752;2022-12-17T13:37:34;1.30;91.10
22645;DHT22;11489;50.834;6.752;2022-12-17T13:42:44;1.30;91.10
22645;DHT22;11489;50.834;6.752;2022-12-17T13:45:15;1.30;91.30
22645;DHT22;11489;50.834;6.752;2022-12-17T13:47:41;1.30;91.20
22645;DHT22;11489;50.834;6.752;2022-12-17T13:50:33;1.20;91.20
22645;DHT22;11489;50.834;6.752;2022-12-17T13:53:08;1.20;90.60
22645;DHT22;11489;50.834;6.752;2022-12-17T13:55:34;1.20;90.70
22645;DHT22;11489;50.834;6.752;2022-12-17T13:58:00;1.10;90.70
22645;DHT22;11489;50.834;6.752;2022-12-17T14:00:29;1.00;90.50
22645;DHT22;11489;50.834;6.752;2022-12-17T14:02:55;0.80;90.30
22645;DHT22;11489;50.834;6.752;2022-12-17T14:05:28;0.80;90.30
22645;DHT22;11489;50.834;6.752;2022-12-17T14:07:58;0.60;90.50
22645;DHT22;11489;50.834;6.752;2022-12-17T14:10:24;0.50;90.10
22645;DHT22;11489;50.834;6.752;2022-12-17T14:13:03;0.40;90.10
22645;DHT22;11489;50.834;6.752;2022-12-17T14:15:29;0.30;90.00
22645;DHT22;11489;50.834;6.752;2022-12-17T14:17:56;0.20;90.00
22645;DHT22;11489;50.834;6.752;2022-12-17T14:20:30;0.10;90.10
22645;DHT22;11489;50.834;6.752;2022-12-17T14:23:05;0.00;90.00
22645;DHT22;11489;50.834;6.752;2022-12-17T14:25:38;-0.10;90.10
22645;DHT22;11489;50.834;6.752;2022-12-17T14:28:18;-0.20;90.10
22645;DHT22;11489;50.834;6.752;2022-12-17T14:30:44;-0.30;90.50
22645;DHT22;11489;50.834;6.752;2022-12-17T14:33:28;-0.50;90.20
22645;DHT22;11489;50.834;6.752;2022-12-17T14:35:55;-0.50;90.10
22645;DHT22;11489;50.834;6.752;2022-12-17T14:38:21;-0.60;90.30
22645;DHT22;11489;50.834;6.752;2022-12-17T14:40:48;-0.70;90.30
22645;DHT22;11489;50.834;6.752;2022-12-17T14:43:14;-0.80;90.40
22645;DHT22;11489;50.834;6.752;2022-12-17T14:45:49;-0.90;90.40
22645;DHT22;11489;50.834;6.752;2022-12-17T14:48:34;-1.00;90.40
22645;DHT22;11489;50.834;6.752;2022-12-17T14:51:26;-1.00;90.40
22645;DHT22;11489;50.834;6.752;2022-12-17T14:53:52;-1.10;90.40
22645;DHT22;11489;50.834;6.752;2022-12-17T14:56:28;-1.20;90.40
22645;DHT22;11489;50.834;6.752;2022-12-17T14:58:54;-1.30;90.40
22645;DHT22;11489;50.834;6.752;2022-12-17T15:01:20;-1.30;90.40
22645;DHT22;11489;50.834;6.752;2022-12-17T15:03:46;-1.40;90.30
22645;DHT22;11489;50.834;6.752;2022-12-17T15:06:17;-1.50;90.30
22645;DHT22;11489;50.834;6.752;2022-12-17T15:08:45;-1.50;90.40
22645;DHT22;11489;50.834;6.752;2022-12-17T15:11:14;-1.70;90.30
22645;DHT22;11489;50.834;6.752;2022-12-17T15:13:40;-1.70;90.30
22645;DHT22;11489;50.834;6.752;2022-12-17T15:16:06;-1.80;90.30
22645;DHT22;11489;50.834;6.752;2022-12-17T15:18:32;-1.90;90.20
22645;DHT22;11489;50.834;6.752;2022-12-17T15:20:58;-1.90;90.20
22645;DHT22;11489;50.834;6.752;2022-12-17T15:23:23;-2.00;90.30
22645;DHT22;11489;50.834;6.752;2022-12-17T15:25:51;-2.10;90.30
22645;DHT22;11489;50.834;6.752;2022-12-17T15:28:17;-2.10;90.30
22645;DHT22;11489;50.834;6.752;2022-12-17T15:30:44;-2.20;90.30
22645;DHT22;11489;50.834;6.752;2022-12-17T15:33:10;-2.30;90.20
22645;DHT22;11489;50.834;6.752;2022-12-17T15:35:37;-2.40;90.20
22645;DHT22;11489;50.834;6.752;2022-12-17T15:38:03;-2.50;90.10
22645;DHT22;11489;50.834;6.752;2022-12-17T15:40:29;-2.50;90.10
22645;DHT22;11489;50.834;6.752;2022-12-17T15:42:55;-2.60;90.00
22645;DHT22;11489;50.834;6.752;2022-12-17T15:45:46;-2.70;90.00
22645;DHT22;11489;50.834;6.752;2022-12-17T15:48:15;-2.70;90.00
22645;DHT22;11489;50.834;6.752;2022-12-17T15:50:41;-2.80;89.90
22645;DHT22;11489;50.834;6.752;2022-12-17T15:53:06;-3.00;90.20
22645;DHT22;11489;50.834;6.752;2022-12-17T15:55:33;-3.00;89.90
22645;DHT22;11489;50.834;6.752;2022-12-17T15:57:59;-3.10;89.90
22645;DHT22;11489;50.834;6.752;2022-12-17T16:00:25;-3.10;89.90
22645;DHT22;11489;50.834;6.752;2022-12-17T16:02:51;-3.20;89.90
22645;DHT22;11489;50.834;6.752;2022-12-17T16:05:17;-3.30;89.80
22645;DHT22;11489;50.834;6.752;2022-12-17T16:07:42;-3.40;89.70
22645;DHT22;11489;50.834;6.752;2022-12-17T16:10:09;-3.40;89.80
22645;DHT22;11489;50.834;6.752;2022-12-17T16:12:35;-3.50;89.90
22645;DHT22;11489;50.834;6.752;2022-12-17T16:15:01;-3.60;89.90
22645;DHT22;11489;50.834;6.752;2022-12-17T16:17:27;-3.70;90.00
22645;DHT22;11489;50.834;6.752;2022-12-17T16:19:52;-3.70;90.00
22645;DHT22;11489;50.834;6.752;2022-12-17T16:22:18;-3.80;90.00
22645;DHT22;11489;50.834;6.752;2022-12-17T16:24:44;-3.90;90.00
22645;DHT22;11489;50.834;6.752;2022-12-17T16:27:10;-3.90;90.10
22645;DHT22;11489;50.834;6.752;2022-12-17T16:29:35;-4.00;90.10
22645;DHT22;11489;50.834;6.752;2022-12-17T16:32:01;-4.00;90.50
22645;DHT22;11489;50.834;6.752;2022-12-17T16:34:27;-4.00;90.20
22645;DHT22;11489;50.834;6.752;2022-12-17T16:36:53;-4.10;90.10
22645;DHT22;11489;50.834;6.752;2022-12-17T16:39:19;-4.10;90.10
22645;DHT22;11489;50.834;6.752;2022-12-17T16:41:45;-4.20;90.10
22645;DHT22;11489;50.834;6.752;2022-12-17T16:44:11;-4.20;90.20
22645;DHT22;11489;50.834;6.752;2022-12-17T16:46:38;-4.20;90.20
22645;DHT22;11489;50.834;6.752;2022-12-17T16:49:13;-4.30;90.30
22645;DHT22;11489;50.834;6.752;2022-12-17T16:51:39;-4.30;90.30
22645;DHT22;11489;50.834;6.752;2022-12-17T16:54:06;-4.30;90.20
22645;DHT22;11489;50.834;6.752;2022-12-17T16:56:33;-4.40;90.20
22645;DHT22;11489;50.834;6.752;2022-12-17T16:59:00;-4.40;90.20
22645;DHT22;11489;50.834;6.752;2022-12-17T17:01:27;-4.40;90.20
22645;DHT22;11489;50.834;6.752;2022-12-17T17:03:53;-4.50;90.10
22645;DHT22;11489;50.834;6.752;2022-12-17T17:06:19;-4.50;90.10
22645;DHT22;11489;50.834;6.752;2022-12-17T17:08:45;-4.60;90.10
22645;DHT22;11489;50.834;6.752;2022-12-17T17:11:16;-4.60;90.10
22645;DHT22;11489;50.834;6.752;2022-12-17T17:13:44;-4.60;90.10
22645;DHT22;11489;50.834;6.752;2022-12-17T17:16:10;-4.70;90.10
22645;DHT22;11489;50.834;6.752;2022-12-17T17:18:36;-4.70;90.10
22645;DHT22;11489;50.834;6.752;2022-12-17T17:23:41;-4.80;90.00
22645;DHT22;11489;50.834;6.752;2022-12-17T17:26:07;-4.90;90.00
22645;DHT22;11489;50.834;6.752;2022-12-17T17:28:33;-4.90;90.00
22645;DHT22;11489;50.834;6.752;2022-12-17T17:31:01;-5.00;89.90
22645;DHT22;11489;50.834;6.752;2022-12-17T17:33:33;-5.00;89.90
22645;DHT22;11489;50.834;6.752;2022-12-17T17:36:06;-5.10;89.70
22645;DHT22;11489;50.834;6.752;2022-12-17T17:38:34;-5.10;89.80
22645;DHT22;11489;50.834;6.752;2022-12-17T17:41:00;-5.20;89.70
22645;DHT22;11489;50.834;6.752;2022-12-17T17:43:26;-5.20;89.70
22645;DHT22;11489;50.834;6.752;2022-12-17T17:45:52;-5.30;89.70
22645;DHT22;11489;50.834;6.752;2022-12-17T17:48:18;-5.30;89.80
22645;DHT22;11489;50.834;6.752;2022-12-17T17:50:56;-5.40;89.70
22645;DHT22;11489;50.834;6.752;2022-12-17T17:53:21;-5.40;89.90
22645;DHT22;11489;50.834;6.752;2022-12-17T17:55:47;-5.40;90.00
22645;DHT22;11489;50.834;6.752;2022-12-17T17:58:13;-5.40;90.00